ENHM

Heimdal Oilp

Heimdal Oilp, Norway
METAR ENHM 260320Z AUTO 19013KT 9999NDV FEW019/// SCT032/// BKN062/// 03/00 Q1040 W06/S4
Observed Flight Rules
Feb-26 @ 03:20 UTC (10 minutes ago)
Wind Clouds
190° at 13 knots
  • Few at 1,900' AGL
  • Scattered at 3,200' AGL
  • Broken at 6,200' AGL
Temperatures Readings
Current 3°C / 37°F
Dewpoint 0°C / 32°F
Humidity 81%
Altimeter 30.71" Hg
Pressure 1040 hPa
Elevation 10
METAR ENHM 260320Z AUTO 19013KT 9999NDV FEW019/// SCT032/// BKN062/// 03/00 Q1040 W06/S4
Observed Flight Rules
Feb-26 @ 03:20 UTC
(10 minutes ago)
Wind
190° at 13 knots
Clouds
  • Few at 1,900' AGL
  • Scattered at 3,200' AGL
  • Broken at 6,200' AGL
Temperature Dewpoint
3°C / 37°F 0°C / 32°F
Humidity Altimeter Pressure
81% 30.71" Hg 1040 hPa